Time,TemperatureF,DewpointF,PressureIn,WindDirection,WindDirectionDegrees,WindSpeedMPH,WindSpeedGustMPH,Humidity,HourlyPrecipIn,Conditions,Clouds,dailyrainin,SoftwareType,DateUTC
2013-03-31 00:12:00,48.0,36.0,-100.00,NNW,331,7.0,16.0,62,0.00,,,0.00,,2013-03-31 07:12:00,
2013-03-31 00:22:00,48.0,36.0,-100.00,NNW,331,7.0,16.0,62,0.00,,,0.00,,2013-03-31 07:22:00,
2013-03-31 00:32:00,48.0,36.0,-100.00,NNW,331,7.0,16.0,62,0.00,,,0.00,,2013-03-31 07:32:00,
2013-03-31 00:42:00,48.0,36.0,-100.00,NNW,331,7.0,16.0,62,0.00,,,0.00,,2013-03-31 07:42:00,
2013-03-31 00:52:00,48.0,36.0,-100.00,NNW,331,7.0,16.0,62,0.00,,,0.00,,2013-03-31 07:52:00,
2013-03-31 01:22:00,47.0,35.0,-100.00,SSW,199,5.0,17.0,64,0.00,,,0.00,,2013-03-31 08:22:00,
2013-03-31 01:32:00,47.0,35.0,-100.00,SSW,199,5.0,17.0,64,0.00,,,0.00,,2013-03-31 08:32:00,
2013-03-31 01:42:00,47.0,35.0,-100.00,SSW,199,5.0,17.0,64,0.00,,,0.00,,2013-03-31 08:42:00,
2013-03-31 01:52:00,47.0,35.0,-100.00,SSW,199,5.0,17.0,64,0.00,,,0.00,,2013-03-31 08:52:00,
2013-03-31 02:12:00,47.0,36.0,-100.00,NNW,332,5.0,15.0,65,0.00,,,0.00,,2013-03-31 09:12:00,
2013-03-31 02:22:00,47.0,36.0,-100.00,NNW,332,5.0,15.0,65,0.00,,,0.00,,2013-03-31 09:22:00,
2013-03-31 02:32:00,47.0,36.0,-100.00,NNW,332,5.0,15.0,65,0.00,,,0.00,,2013-03-31 09:32:00,
2013-03-31 02:42:00,47.0,36.0,-100.00,NNW,332,5.0,15.0,65,0.00,,,0.00,,2013-03-31 09:42:00,
2013-03-31 02:52:00,47.0,36.0,-100.00,NNW,332,5.0,15.0,65,0.00,,,0.00,,2013-03-31 09:52:00,
2013-03-31 03:13:00,47.0,37.0,-100.00,West,280,4.0,12.0,68,0.00,,,0.00,,2013-03-31 10:13:00,
2013-03-31 03:23:00,47.0,37.0,-100.00,West,280,4.0,12.0,68,0.00,,,0.00,,2013-03-31 10:23:00,
2013-03-31 03:32:00,47.0,37.0,-100.00,West,280,4.0,12.0,68,0.00,,,0.00,,2013-03-31 10:32:00,
2013-03-31 03:42:00,47.0,37.0,-100.00,West,280,4.0,12.0,68,0.00,,,0.00,,2013-03-31 10:42:00,
2013-03-31 03:52:00,47.0,37.0,-100.00,West,280,4.0,12.0,68,0.00,,,0.00,,2013-03-31 10:52:00,
2013-03-31 04:12:00,42.0,39.0,-100.00,WNW,297,2.0,11.0,89,0.00,,,0.00,,2013-03-31 11:12:00,
2013-03-31 04:22:00,42.0,39.0,-100.00,WNW,297,2.0,11.0,89,0.00,,,0.00,,2013-03-31 11:22:00,
2013-03-31 04:32:00,42.0,39.0,-100.00,WNW,297,2.0,11.0,89,0.00,,,0.00,,2013-03-31 11:32:00,
2013-03-31 04:42:00,42.0,39.0,-100.00,WNW,297,2.0,11.0,89,0.00,,,0.00,,2013-03-31 11:42:00,
2013-03-31 04:51:00,42.0,39.0,-100.00,WNW,297,2.0,11.0,89,0.00,,,0.00,,2013-03-31 11:51:00,
2013-03-31 05:22:00,42.0,41.0,-100.00,WNW,288,1.0,5.0,95,0.00,,,0.00,,2013-03-31 12:22:00,
2013-03-31 05:32:00,42.0,41.0,-100.00,WNW,288,1.0,5.0,95,0.00,,,0.00,,2013-03-31 12:32:00,
2013-03-31 05:42:00,42.0,41.0,-100.00,WNW,288,1.0,5.0,95,0.00,,,0.00,,2013-03-31 12:42:00,
2013-03-31 05:52:00,42.0,41.0,-100.00,WNW,288,1.0,5.0,95,0.00,,,0.00,,2013-03-31 12:52:00,
2013-03-31 06:12:00,40.0,39.0,-100.00,WNW,284,3.0,5.0,97,0.00,,,0.00,,2013-03-31 13:12:00,
2013-03-31 06:22:00,40.0,39.0,-100.00,WNW,284,3.0,5.0,97,0.00,,,0.00,,2013-03-31 13:22:00,
2013-03-31 06:32:00,40.0,39.0,-100.00,WNW,284,3.0,5.0,97,0.00,,,0.00,,2013-03-31 13:32:00,
2013-03-31 06:42:00,40.0,39.0,-100.00,WNW,284,3.0,5.0,97,0.00,,,0.00,,2013-03-31 13:42:00,
2013-03-31 06:52:00,40.0,39.0,-100.00,WNW,284,3.0,5.0,97,0.00,,,0.00,,2013-03-31 13:52:00,
2013-03-31 07:12:00,40.0,40.0,-100.00,WNW,291,4.0,8.0,100,0.00,,,0.00,,2013-03-31 14:12:00,
2013-03-31 07:22:00,40.0,40.0,-100.00,WNW,291,4.0,8.0,100,0.00,,,0.00,,2013-03-31 14:22:00,
2013-03-31 07:32:00,40.0,40.0,-100.00,WNW,291,4.0,8.0,100,0.00,,,0.00,,2013-03-31 14:32:00,
2013-03-31 07:42:00,40.0,40.0,-100.00,WNW,291,4.0,8.0,100,0.00,,,0.00,,2013-03-31 14:42:00,
2013-03-31 07:51:00,40.0,40.0,-100.00,WNW,291,4.0,8.0,100,0.00,,,0.00,,2013-03-31 14:51:00,
2013-03-31 07:53:00,40.0,40.0,-100.00,WNW,288,5.0,9.0,100,0.00,,,0.00,,2013-03-31 14:53:00,
2013-03-31 08:12:00,40.0,40.0,-100.00,WNW,288,5.0,9.0,100,0.00,,,0.00,,2013-03-31 15:12:00,
2013-03-31 08:22:00,40.0,40.0,-100.00,WNW,288,5.0,9.0,100,0.00,,,0.00,,2013-03-31 15:22:00,
2013-03-31 08:33:00,40.0,40.0,-100.00,WNW,288,5.0,9.0,100,0.00,,,0.00,,2013-03-31 15:33:00,
2013-03-31 08:43:00,40.0,40.0,-100.00,WNW,288,5.0,9.0,100,0.00,,,0.00,,2013-03-31 15:43:00,
2013-03-31 09:13:00,42.0,40.0,-100.00,WNW,300,5.0,8.0,94,0.00,,,0.00,,2013-03-31 16:13:00,
2013-03-31 09:22:00,42.0,40.0,-100.00,WNW,300,5.0,8.0,94,0.00,,,0.00,,2013-03-31 16:22:00,
2013-03-31 09:33:00,42.0,40.0,-100.00,WNW,300,5.0,8.0,94,0.00,,,0.00,,2013-03-31 16:33:00,
2013-03-31 09:42:00,42.0,40.0,-100.00,WNW,300,5.0,8.0,94,0.00,,,0.00,,2013-03-31 16:42:00,
2013-03-31 09:52:00,42.0,40.0,-100.00,WNW,300,5.0,8.0,94,0.00,,,0.00,,2013-03-31 16:52:00,
2013-03-31 10:12:00,46.0,35.0,-100.00,WNW,294,7.0,14.0,64,0.00,,,0.00,,2013-03-31 17:12:00,
2013-03-31 10:22:00,46.0,35.0,-100.00,WNW,294,7.0,14.0,64,0.00,,,0.00,,2013-03-31 17:22:00,
2013-03-31 10:32:00,46.0,35.0,-100.00,WNW,294,7.0,14.0,64,0.00,,,0.00,,2013-03-31 17:32:00,
2013-03-31 10:42:00,46.0,35.0,-100.00,WNW,294,7.0,14.0,64,0.00,,,0.00,,2013-03-31 17:42:00,
2013-03-31 10:51:00,46.0,35.0,-100.00,WNW,294,7.0,14.0,64,0.00,,,0.00,,2013-03-31 17:51:00,
2013-03-31 11:22:00,46.0,32.0,-100.00,WNW,283,5.0,11.0,59,0.00,,,0.00,,2013-03-31 18:22:00,
2013-03-31 11:32:00,46.0,32.0,-100.00,WNW,283,5.0,11.0,59,0.00,,,0.00,,2013-03-31 18:32:00,
2013-03-31 11:42:00,46.0,32.0,-100.00,WNW,283,5.0,11.0,59,0.00,,,0.00,,2013-03-31 18:42:00,
2013-03-31 11:52:00,46.0,32.0,-100.00,WNW,283,5.0,11.0,59,0.00,,,0.00,,2013-03-31 18:52:00,
2013-03-31 11:53:00,48.0,34.0,-100.00,West,262,4.0,9.0,59,0.00,,,0.00,,2013-03-31 18:53:00,
2013-03-31 12:12:00,48.0,34.0,-100.00,West,262,4.0,9.0,59,0.00,,,0.00,,2013-03-31 19:12:00,
2013-03-31 12:22:00,48.0,34.0,-100.00,West,262,4.0,9.0,59,0.00,,,0.00,,2013-03-31 19:22:00,
2013-03-31 12:32:00,48.0,34.0,-100.00,West,262,4.0,9.0,59,0.00,,,0.00,,2013-03-31 19:32:00,
2013-03-31 12:42:00,48.0,34.0,-100.00,West,262,4.0,9.0,59,0.00,,,0.00,,2013-03-31 19:42:00,
2013-03-31 13:12:00,47.0,34.0,-100.00,WNW,282,5.0,10.0,61,0.00,,,0.00,,2013-03-31 20:12:00,
2013-03-31 13:22:00,47.0,34.0,-100.00,WNW,282,5.0,10.0,61,0.00,,,0.00,,2013-03-31 20:22:00,
2013-03-31 13:33:00,47.0,34.0,-100.00,WNW,282,5.0,10.0,61,0.00,,,0.00,,2013-03-31 20:33:00,
2013-03-31 13:42:00,47.0,34.0,-100.00,WNW,282,5.0,10.0,61,0.00,,,0.00,,2013-03-31 20:42:00,
2013-03-31 13:52:00,47.0,34.0,-100.00,WNW,282,5.0,10.0,61,0.00,,,0.00,,2013-03-31 20:52:00,
2013-03-31 13:53:00,46.0,39.0,-100.00,WNW,286,5.0,9.0,76,0.00,,,0.00,,2013-03-31 20:53:00,
2013-03-31 14:12:00,46.0,39.0,-100.00,WNW,286,5.0,9.0,76,0.00,,,0.00,,2013-03-31 21:12:00,
2013-03-31 14:22:00,46.0,39.0,-100.00,WNW,286,5.0,9.0,76,0.00,,,0.00,,2013-03-31 21:22:00,
2013-03-31 14:33:00,46.0,39.0,-100.00,WNW,286,5.0,9.0,76,0.00,,,0.00,,2013-03-31 21:33:00,
2013-03-31 14:43:00,46.0,39.0,-100.00,WNW,286,5.0,9.0,76,0.00,,,0.00,,2013-03-31 21:43:00,
2013-03-31 15:13:00,43.0,43.0,-100.00,WNW,290,4.0,8.0,100,0.02,,,0.02,,2013-03-31 22:13:00,
2013-03-31 15:23:00,43.0,43.0,-100.00,WNW,290,4.0,8.0,100,0.02,,,0.02,,2013-03-31 22:23:00,
2013-03-31 15:33:00,43.0,43.0,-100.00,WNW,290,4.0,8.0,100,0.02,,,0.02,,2013-03-31 22:33:00,
2013-03-31 15:42:00,43.0,43.0,-100.00,WNW,290,4.0,8.0,100,0.02,,,0.02,,2013-03-31 22:42:00,
2013-03-31 15:52:00,43.0,43.0,-100.00,WNW,290,4.0,8.0,100,0.02,,,0.02,,2013-03-31 22:52:00,
2013-03-31 16:22:00,43.0,43.0,-100.00,NW,326,2.0,7.0,100,0.02,,,0.04,,2013-03-31 23:22:00,
2013-03-31 16:32:00,43.0,43.0,-100.00,NW,326,2.0,7.0,100,0.02,,,0.04,,2013-03-31 23:32:00,
2013-03-31 16:42:00,43.0,43.0,-100.00,NW,326,2.0,7.0,100,0.02,,,0.04,,2013-03-31 23:42:00,
2013-03-31 16:52:00,43.0,43.0,-100.00,NW,326,2.0,7.0,100,0.02,,,0.04,,2013-03-31 23:52:00,
2013-03-31 17:12:00,42.0,42.0,-100.00,WNW,294,4.0,8.0,100,0.13,,,0.17,,2013-04-01 00:12:00,
2013-03-31 17:22:00,42.0,42.0,-100.00,WNW,294,4.0,8.0,100,0.13,,,0.17,,2013-04-01 00:22:00,
2013-03-31 17:32:00,42.0,42.0,-100.00,WNW,294,4.0,8.0,100,0.13,,,0.17,,2013-04-01 00:32:00,
2013-03-31 17:42:00,42.0,42.0,-100.00,WNW,294,4.0,8.0,100,0.13,,,0.17,,2013-04-01 00:42:00,
2013-03-31 17:52:00,42.0,42.0,-100.00,WNW,294,4.0,8.0,100,0.13,,,0.17,,2013-04-01 00:52:00,
2013-03-31 18:12:00,42.0,42.0,-100.00,WNW,292,3.0,5.0,100,0.05,,,0.22,,2013-04-01 01:12:00,
2013-03-31 18:22:00,42.0,42.0,-100.00,WNW,292,3.0,5.0,100,0.05,,,0.22,,2013-04-01 01:22:00,
2013-03-31 18:32:00,42.0,42.0,-100.00,WNW,292,3.0,5.0,100,0.05,,,0.22,,2013-04-01 01:32:00,
2013-03-31 18:42:00,42.0,42.0,-100.00,WNW,292,3.0,5.0,100,0.05,,,0.22,,2013-04-01 01:42:00,
2013-03-31 18:52:00,42.0,42.0,-100.00,WNW,292,3.0,5.0,100,0.05,,,0.22,,2013-04-01 01:52:00,
2013-03-31 19:12:00,41.0,41.0,-100.00,WNW,297,4.0,9.0,100,0.04,,,0.26,,2013-04-01 02:12:00,
2013-03-31 19:22:00,41.0,41.0,-100.00,WNW,297,4.0,9.0,100,0.04,,,0.26,,2013-04-01 02:22:00,
2013-03-31 19:32:00,41.0,41.0,-100.00,WNW,297,4.0,9.0,100,0.04,,,0.26,,2013-04-01 02:32:00,
2013-03-31 19:42:00,41.0,41.0,-100.00,WNW,297,4.0,9.0,100,0.04,,,0.26,,2013-04-01 02:42:00,
2013-03-31 19:52:00,41.0,41.0,-100.00,WNW,297,4.0,9.0,100,0.04,,,0.26,,2013-04-01 02:52:00,
2013-03-31 20:22:00,41.0,41.0,-100.00,WNW,300,4.0,8.0,100,0.01,,,0.27,,2013-04-01 03:22:00,
2013-03-31 20:33:00,41.0,41.0,-100.00,WNW,300,4.0,8.0,100,0.01,,,0.27,,2013-04-01 03:33:00,
2013-03-31 20:43:00,41.0,41.0,-100.00,WNW,300,4.0,8.0,100,0.01,,,0.27,,2013-04-01 03:43:00,
2013-03-31 20:52:00,41.0,41.0,-100.00,WNW,300,4.0,8.0,100,0.01,,,0.27,,2013-04-01 03:52:00,
2013-03-31 21:23:00,41.0,41.0,-100.00,WNW,287,5.0,9.0,100,0.03,,,0.30,,2013-04-01 04:23:00,
2013-03-31 21:32:00,41.0,41.0,-100.00,WNW,287,5.0,9.0,100,0.03,,,0.30,,2013-04-01 04:32:00,
2013-03-31 21:43:00,41.0,41.0,-100.00,WNW,287,5.0,9.0,100,0.03,,,0.30,,2013-04-01 04:43:00,
2013-03-31 21:52:00,41.0,41.0,-100.00,WNW,287,5.0,9.0,100,0.03,,,0.30,,2013-04-01 04:52:00,
2013-03-31 22:12:00,40.0,40.0,-100.00,WNW,299,4.0,10.0,100,0.00,,,0.30,,2013-04-01 05:12:00,
2013-03-31 22:22:00,40.0,40.0,-100.00,WNW,299,4.0,10.0,100,0.00,,,0.30,,2013-04-01 05:22:00,
2013-03-31 22:32:00,40.0,40.0,-100.00,WNW,299,4.0,10.0,100,0.00,,,0.30,,2013-04-01 05:32:00,
2013-03-31 22:42:00,40.0,40.0,-100.00,WNW,299,4.0,10.0,100,0.00,,,0.30,,2013-04-01 05:42:00,
2013-03-31 22:52:00,40.0,40.0,-100.00,WNW,299,4.0,10.0,100,0.00,,,0.30,,2013-04-01 05:52:00,
2013-03-31 23:12:00,40.0,40.0,-100.00,WNW,299,6.0,11.0,100,0.00,,,0.30,,2013-04-01 06:12:00,
2013-03-31 23:22:00,40.0,40.0,-100.00,WNW,299,6.0,11.0,100,0.00,,,0.30,,2013-04-01 06:22:00,
2013-03-31 23:33:00,40.0,40.0,-100.00,WNW,299,6.0,11.0,100,0.00,,,0.30,,2013-04-01 06:33:00,
2013-03-31 23:42:00,40.0,40.0,-100.00,WNW,299,6.0,11.0,100,0.00,,,0.30,,2013-04-01 06:42:00,
2013-03-31 23:52:00,40.0,40.0,-100.00,WNW,299,6.0,11.0,100,0.00,,,0.30,,2013-04-01 06:52:00,